Spring, Texas
Current Conditions -  °F | °C
As of 5:21 PM on Friday 19 Dec 2014 (Local Time) from KDWH Reporting Station
Overcast Overcast  
Wind Chill: 55°   Ceiling: 900
Heat Index: 55°   Visibility: 10mi
Dew Point: 54°   Wind: 8mph
Humidity: 94%   Direction: 360°N
Pressure: 30.06"   Gusts: NA
Location:  30.08°N, 95.42°W
Report Text: KDWH 192321Z 36007KT 10SM BKN009 OVC014 13/12 A3006 RMK AO2 CIG 008V012
Loading
Personal Weather Stations






























Interactive Weather Map New forecast layout! Learn more

10-Day Weather Forecast

Advertisements
Track Severe Weather on mobile